Time;durP1;ratioP1;P1;durP2;ratioP2;P2;SDS_P1;SDS_P2;PMS_P1;PMS_P2;Temp;Humidity;BMP_temperature;BMP_pressure;BME280_temperature;BME280_humidity;BME280_pressure;Samples;Min_cycle;Max_cycle;Signal;HPM_P1;HPM_P2
2021/12/09 00:00:37;;;;;;;14.60;8.37;;;;;;;3.23;100.00;99750.03;5076716;28;20318;-76
2021/12/09 00:03:06;;;;;;;16.33;9.13;;;;;;;2.90;100.00;99694.94;5075633;28;20195;-76
2021/12/09 00:05:35;;;;;;;14.77;9.47;;;;;;;3.37;100.00;99763.34;5077157;28;20206;-77
2021/12/09 00:08:02;;;;;;;14.17;9.77;;;;;;;3.27;100.00;99763.81;5076194;28;20195;-76
2021/12/09 00:10:29;;;;;;;17.83;9.73;;;;;;;3.27;100.00;99743.34;5076016;28;20205;-76
2021/12/09 00:12:56;;;;;;;17.17;9.87;;;;;;;3.28;100.00;99755.34;5074917;28;20190;-76
2021/12/09 00:15:24;;;;;;;19.20;10.83;;;;;;;3.17;100.00;99764.28;5076136;28;20195;-76
2021/12/09 00:17:51;;;;;;;16.53;10.43;;;;;;;3.29;100.00;99769.88;5076235;28;20205;-76
2021/12/09 00:20:18;;;;;;;17.43;11.23;;;;;;;3.34;100.00;99774.38;5075775;28;20235;-76
2021/12/09 00:22:46;;;;;;;22.07;11.07;;;;;;;3.25;100.00;99766.31;5076577;28;20245;-76
2021/12/09 00:25:14;;;;;;;18.60;10.00;;;;;;;3.33;100.00;99777.75;5076210;28;20259;-76
2021/12/09 00:27:41;;;;;;;18.50;10.27;;;;;;;3.40;100.00;99769.47;5076095;28;20198;-77
2021/12/09 00:30:09;;;;;;;19.43;11.10;;;;;;;3.36;100.00;99767.59;5075712;28;20195;-76
2021/12/09 00:32:39;;;;;;;21.77;10.80;;;;;;;3.17;100.00;99764.28;5076264;28;20191;-76
2021/12/09 00:35:07;;;;;;;19.73;11.23;;;;;;;3.16;100.00;99765.97;5069783;28;20191;-77
2021/12/09 00:37:38;;;;;;;18.53;11.70;;;;;;;3.20;100.00;99767.84;5056066;28;20196;-76
2021/12/09 00:40:07;;;;;;;20.13;11.27;;;;;;;3.19;100.00;99773.78;5055811;28;20296;-76
2021/12/09 00:42:35;;;;;;;25.67;14.90;;;;;;;3.17;100.00;99752.38;5069922;28;20198;-76
2021/12/09 00:45:02;;;;;;;19.73;11.93;;;;;;;3.43;100.00;99784.97;5073769;28;20206;-76
2021/12/09 00:47:30;;;;;;;20.93;12.30;;;;;;;3.36;100.00;99785.53;5076041;28;20677;-76
2021/12/09 00:49:59;;;;;;;16.50;10.73;;;;;;;3.47;100.00;99791.94;5075258;28;20191;-77
2021/12/09 00:52:27;;;;;;;18.17;11.00;;;;;;;3.44;100.00;99791.84;5076738;28;20190;-76
2021/12/09 00:54:55;;;;;;;21.43;11.77;;;;;;;3.44;100.00;99785.84;5075468;28;20754;-76
2021/12/09 00:57:23;;;;;;;20.87;12.97;;;;;;;3.35;100.00;99794.03;5075910;28;20194;-76
2021/12/09 00:59:50;;;;;;;18.23;11.57;;;;;;;3.21;100.00;99784.94;5066548;28;20349;-76
2021/12/09 01:02:17;;;;;;;21.47;12.50;;;;;;;3.05;100.00;99790.28;5056037;28;20195;-76
2021/12/09 01:04:46;;;;;;;20.80;12.13;;;;;;;2.93;100.00;99784.66;5055350;28;20670;-76
2021/12/09 01:07:14;;;;;;;19.97;11.77;;;;;;;2.87;100.00;99786.97;5055710;28;20195;-77
2021/12/09 01:09:41;;;;;;;21.70;12.27;;;;;;;2.78;100.00;99781.50;5055011;28;20199;-77
2021/12/09 01:12:09;;;;;;;19.70;12.20;;;;;;;2.73;100.00;99775.31;5064704;28;20641;-76
2021/12/09 01:14:37;;;;;;;22.93;12.77;;;;;;;2.66;100.00;99778.44;5077462;28;20195;-76
2021/12/09 01:17:05;;;;;;;24.63;16.77;;;;;;;2.44;100.00;99733.19;5078256;28;20223;-76
2021/12/09 01:19:32;;;;;;;34.33;18.87;;;;;;;2.68;100.00;99761.44;5079889;28;20231;-76
2021/12/09 01:21:59;;;;;;;24.57;14.10;;;;;;;2.61;100.00;99772.25;5078999;28;20195;-76
2021/12/09 01:24:27;;;;;;;28.23;14.70;;;;;;;2.34;100.00;99738.72;5079301;28;20543;-76
2021/12/09 01:26:56;;;;;;;25.93;15.50;;;;;;;2.36;100.00;99761.00;5077589;28;20202;-76
2021/12/09 01:29:32;;;;;;;26.83;14.57;;;;;;;2.28;100.00;99758.94;5081470;28;20286;-76
2021/12/09 01:32:02;;;;;;;25.37;14.53;;;;;;;2.25;100.00;99769.88;5079688;28;20244;-76
2021/12/09 01:34:29;;;;;;;33.33;17.20;;;;;;;2.26;100.00;99766.53;5081597;28;20684;-76
2021/12/09 01:36:56;;;;;;;29.30;15.20;;;;;;;2.20;100.00;99761.16;5080575;28;20187;-77
2021/12/09 01:39:23;;;;;;;30.90;15.17;;;;;;;2.19;100.00;99748.31;5080623;28;20685;-76
2021/12/09 01:41:51;;;;;;;28.47;14.93;;;;;;;2.14;100.00;99745.53;5069740;28;20562;-76
2021/12/09 01:44:18;;;;;;;29.77;13.90;;;;;;;2.18;100.00;99747.44;5058366;28;20198;-76
2021/12/09 01:46:45;;;;;;;24.77;14.87;;;;;;;2.20;100.00;99758.63;5076019;28;20211;-76
2021/12/09 01:49:12;;;;;;;30.77;15.77;;;;;;;2.13;100.00;99755.72;5079959;28;20565;-76
2021/12/09 01:51:40;;;;;;;29.07;15.03;;;;;;;2.10;100.00;99753.91;5077725;28;20202;-77
2021/12/09 01:54:07;;;;;;;27.47;15.10;;;;;;;2.08;100.00;99749.53;5078776;28;20191;-76
2021/12/09 01:56:34;;;;;;;29.37;15.30;;;;;;;2.08;100.00;99759.75;5079296;28;20681;-76
2021/12/09 01:59:05;;;;;;;27.20;15.43;;;;;;;2.06;100.00;99753.72;5076912;28;20187;-76
2021/12/09 02:01:34;;;;;;;36.30;16.83;;;;;;;1.99;100.00;99744.91;5078856;28;21128;-76
2021/12/09 02:04:03;;;;;;;30.93;16.57;;;;;;;2.08;100.00;99763.19;5079107;28;20191;-76
2021/12/09 02:06:31;;;;;;;30.97;17.20;;;;;;;2.05;100.00;99760.50;5079901;28;20203;-76
2021/12/09 02:08:58;;;;;;;30.40;16.13;;;;;;;2.04;100.00;99753.63;5079467;28;20203;-76
2021/12/09 02:11:25;;;;;;;28.20;16.00;;;;;;;1.86;100.00;99727.28;5077668;28;20297;-76
2021/12/09 02:13:56;;;;;;;28.60;16.20;;;;;;;2.01;100.00;99763.72;5077244;28;20262;-76
2021/12/09 02:16:24;;;;;;;33.67;16.80;;;;;;;2.05;100.00;99759.63;5075766;28;20187;-76
2021/12/09 02:18:51;;;;;;;33.00;16.97;;;;;;;2.05;100.00;99768.16;5060442;28;20236;-76
2021/12/09 02:21:22;;;;;;;28.13;16.27;;;;;;;1.82;100.00;99725.41;5077718;28;20713;-76
2021/12/09 02:23:51;;;;;;;33.27;18.17;;;;;;;1.73;100.00;99723.31;5077849;28;20203;-76
2021/12/09 02:26:20;;;;;;;35.67;17.83;;;;;;;1.84;100.00;99742.56;5076912;28;20199;-77
2021/12/09 02:28:48;;;;;;;33.47;18.07;;;;;;;1.85;100.00;99756.22;5077633;28;20586;-76
2021/12/09 02:31:15;;;;;;;35.97;18.87;;;;;;;1.87;100.00;99752.03;5077739;28;20195;-76
2021/12/09 02:33:42;;;;;;;32.10;18.03;;;;;;;2.01;100.00;99750.94;5078284;28;20220;-76
2021/12/09 02:36:09;;;;;;;34.07;18.53;;;;;;;2.02;100.00;99739.94;5077715;28;20590;-76
2021/12/09 02:38:43;;;;;;;28.30;17.77;;;;;;;1.87;100.00;99744.38;5076703;28;20194;-76
2021/12/09 02:41:14;;;;;;;25.27;14.87;;;;;;;1.96;100.00;99739.66;5077486;28;20223;-76
2021/12/09 02:43:42;;;;;;;26.50;16.37;;;;;;;1.79;100.00;99710.81;5076249;28;20209;-76
2021/12/09 02:46:09;;;;;;;32.33;16.93;;;;;;;1.82;100.00;99738.19;5077359;28;20580;-76
2021/12/09 02:48:36;;;;;;;28.77;15.83;;;;;;;1.81;100.00;99728.78;5077589;28;20194;-76
2021/12/09 02:51:05;;;;;;;24.20;14.90;;;;;;;1.87;100.00;99716.25;5077370;28;20194;-76
2021/12/09 02:53:33;;;;;;;24.23;14.67;;;;;;;1.50;100.00;99645.66;5077517;28;20194;-76
2021/12/09 02:56:01;;;;;;;23.23;14.37;;;;;;;2.11;100.00;99719.84;5077212;28;20198;-76
2021/12/09 02:58:28;;;;;;;24.43;13.83;;;;;;;2.07;100.00;99717.97;5076638;28;20202;-76
2021/12/09 03:00:58;;;;;;;23.33;13.93;;;;;;;2.03;100.00;99721.22;5076784;28;20661;-76
2021/12/09 03:03:26;;;;;;;28.07;14.90;;;;;;;1.96;100.00;99721.78;5061995;28;20199;-76
2021/12/09 03:05:54;;;;;;;27.13;16.00;;;;;;;2.04;100.00;99724.63;5056931;28;20199;-76
2021/12/09 03:08:32;;;;;;;30.50;15.83;;;;;;;1.97;100.00;99714.16;5057118;28;20282;-76
2021/12/09 03:11:03;;;;;;;24.90;15.47;;;;;;;1.94;100.00;99720.81;5059329;28;20225;-76
2021/12/09 03:13:29;;;;;;;25.23;15.43;;;;;;;1.92;100.00;99709.66;5057294;28;20187;-77
2021/12/09 03:15:56;;;;;;;24.90;14.57;;;;;;;1.98;100.00;99710.81;5058462;28;20199;-76
2021/12/09 03:18:23;;;;;;;24.57;14.43;;;;;;;2.04;100.00;99707.63;5061577;28;20692;-76
2021/12/09 03:20:50;;;;;;;22.40;13.90;;;;;;;2.05;100.00;99705.94;5059791;28;20304;-76
2021/12/09 03:23:17;;;;;;;21.57;13.20;;;;;;;2.05;100.00;99708.50;5059472;28;20637;-76
2021/12/09 03:25:44;;;;;;;24.17;13.80;;;;;;;2.06;100.00;99693.22;5058958;28;20192;-76
2021/12/09 03:28:12;;;;;;;19.40;11.33;;;;;;;2.15;100.00;99683.38;5058581;28;20659;-76
2021/12/09 03:30:39;;;;;;;20.87;12.53;;;;;;;2.15;100.00;99688.50;5056929;28;20196;-76
2021/12/09 03:33:06;;;;;;;21.47;11.93;;;;;;;2.16;100.00;99690.25;5056424;28;20210;-76
2021/12/09 03:35:33;;;;;;;18.67;11.43;;;;;;;2.15;100.00;99701.28;5058503;28;20199;-76
2021/12/09 03:38:00;;;;;;;18.17;11.80;;;;;;;2.10;100.00;99676.34;5058038;28;20196;-76
2021/12/09 03:40:27;;;;;;;22.03;12.20;;;;;;;2.47;100.00;99707.72;5077973;28;20218;-75
2021/12/09 03:42:53;;;;;;;17.27;10.67;;;;;;;2.59;100.00;99710.78;5077338;28;20199;-76
2021/12/09 03:45:22;;;;;;;23.03;12.43;;;;;;;2.58;100.00;99715.81;5076384;28;20195;-76
2021/12/09 03:47:49;;;;;;;17.53;10.40;;;;;;;2.66;100.00;99722.13;5076736;28;20191;-76
2021/12/09 03:50:17;;;;;;;17.50;10.37;;;;;;;2.77;100.00;99738.78;5072422;28;20597;-75
2021/12/09 03:52:44;;;;;;;14.00;8.83;;;;;;;2.85;100.00;99738.28;5073710;28;20259;-75
2021/12/09 03:55:11;;;;;;;17.70;8.27;;;;;;;2.94;100.00;99714.72;5073098;28;20633;-77
2021/12/09 03:57:38;;;;;;;16.63;10.27;;;;;;;2.95;100.00;99747.22;5072144;28;20187;-76
2021/12/09 04:00:08;;;;;;;14.23;8.63;;;;;;;3.10;100.00;99741.81;5071882;28;20649;-75
2021/12/09 04:02:36;;;;;;;8.50;5.70;;;;;;;3.14;100.00;99738.56;5072222;28;20612;-75
2021/12/09 04:05:03;;;;;;;13.63;9.67;;;;;;;3.01;100.00;99729.53;5066613;28;20775;-75
2021/12/09 04:07:30;;;;;;;16.90;9.60;;;;;;;2.82;100.00;99727.91;5053062;28;20215;-75
2021/12/09 04:09:57;;;;;;;14.17;9.47;;;;;;;2.83;100.00;99734.78;5053473;28;20199;-76
2021/12/09 04:12:24;;;;;;;15.93;9.93;;;;;;;2.79;100.00;99740.59;5060922;28;20606;-75
2021/12/09 04:14:52;;;;;;;21.90;13.30;;;;;;;2.72;100.00;99747.97;5072690;28;20198;-75
2021/12/09 04:17:19;;;;;;;23.87;12.63;;;;;;;2.67;100.00;99752.03;5067055;28;20192;-75
2021/12/09 04:19:48;;;;;;;21.40;12.63;;;;;;;2.59;100.00;99754.28;5054161;28;20223;-75
2021/12/09 04:22:17;;;;;;;26.20;15.30;;;;;;;2.49;100.00;99752.16;5053952;28;20255;-75
2021/12/09 04:24:44;;;;;;;24.43;13.60;;;;;;;2.56;100.00;99755.84;5054019;28;20282;-75
2021/12/09 04:27:11;;;;;;;25.10;13.33;;;;;;;2.48;100.00;99760.63;5053917;28;20287;-75
2021/12/09 04:29:38;;;;;;;36.67;18.40;;;;;;;2.47;100.00;99752.09;5053417;28;20277;-75
2021/12/09 04:32:06;;;;;;;35.73;19.33;;;;;;;2.39;100.00;99755.16;5053539;28;20191;-75
2021/12/09 04:34:33;;;;;;;32.20;18.33;;;;;;;2.32;100.00;99769.34;5054101;28;20195;-75
2021/12/09 04:37:01;;;;;;;34.57;19.47;;;;;;;2.27;100.00;99760.63;5059215;28;20195;-77
2021/12/09 04:39:29;;;;;;;24.97;14.50;;;;;;;2.07;100.00;99753.75;5061714;28;20226;-76
2021/12/09 04:41:55;;;;;;;29.07;14.80;;;;;;;2.21;100.00;99773.13;5059711;28;20227;-76
2021/12/09 04:44:23;;;;;;;29.50;15.13;;;;;;;2.11;100.00;99758.19;5058633;28;20195;-77
2021/12/09 04:46:51;;;;;;;28.13;15.37;;;;;;;2.06;100.00;99759.72;5056607;28;20196;-76
2021/12/09 04:49:18;;;;;;;26.47;14.87;;;;;;;2.02;100.00;99768.03;5057023;28;20567;-77
2021/12/09 04:51:44;;;;;;;41.83;21.27;;;;;;;1.95;100.00;99773.69;5057763;28;20267;-77
2021/12/09 04:54:13;;;;;;;34.43;19.07;;;;;;;1.87;100.00;99765.69;5072501;28;20217;-77
2021/12/09 04:56:40;;;;;;;29.63;17.27;;;;;;;1.68;100.00;99757.13;5082019;28;20198;-76
2021/12/09 04:59:06;;;;;;;32.57;18.43;;;;;;;1.75;100.00;99765.13;5079698;28;20199;-77
2021/12/09 05:01:34;;;;;;;35.83;22.20;;;;;;;1.86;100.00;99757.94;5079298;28;20230;-77
2021/12/09 05:04:01;;;;;;;39.87;23.00;;;;;;;1.88;100.00;99769.13;5079090;28;20202;-76
2021/12/09 05:06:29;;;;;;;50.83;23.80;;;;;;;1.90;100.00;99770.06;5079040;28;20195;-76
2021/12/09 05:08:57;;;;;;;57.43;27.17;;;;;;;1.79;100.00;99777.25;5079699;28;20194;-76
2021/12/09 05:11:47;;;;;;;46.47;22.87;;;;;;;1.67;100.00;99761.38;5080113;28;20210;-77
2021/12/09 05:14:16;;;;;;;42.90;22.40;;;;;;;1.61;100.00;99775.53;5078057;28;20199;-76
2021/12/09 05:16:43;;;;;;;40.90;22.87;;;;;;;1.48;100.00;99780.13;5075797;28;20194;-76
2021/12/09 05:19:10;;;;;;;42.07;22.03;;;;;;;1.46;100.00;99779.16;5080448;28;20207;-77
2021/12/09 05:21:39;;;;;;;54.50;30.77;;;;;;;1.42;100.00;99776.41;5080253;28;20222;-77
2021/12/09 05:24:06;;;;;;;42.20;24.93;;;;;;;1.54;100.00;99786.28;5080203;28;20195;-77
2021/12/09 05:26:41;;;;;;;38.10;21.10;;;;;;;1.49;100.00;99786.97;5078968;28;20191;-76
2021/12/09 05:29:09;;;;;;;41.33;21.27;;;;;;;1.29;100.00;99791.94;5081158;28;20230;-77
2021/12/09 05:34:21;;;;;;;37.97;21.77;;;;;;;0.88;100.00;99747.50;5062364;28;20680;-77
2021/12/09 05:36:47;;;;;;;45.37;24.00;;;;;;;0.70;100.00;99710.91;5057564;28;20199;-76
2021/12/09 05:39:15;;;;;;;58.73;30.83;;;;;;;1.21;100.00;99778.84;5059649;28;20195;-75
2021/12/09 05:41:45;;;;;;;48.47;26.73;;;;;;;1.23;100.00;99782.34;5059702;28;20232;-75
2021/12/09 05:44:13;;;;;;;51.43;28.23;;;;;;;1.22;100.00;99775.47;5074286;28;20206;-75
2021/12/09 05:46:42;;;;;;;55.17;28.20;;;;;;;1.29;100.00;99779.19;5079799;28;20195;-75
2021/12/09 05:49:10;;;;;;;52.57;27.60;;;;;;;1.15;100.00;99768.34;5079809;28;20196;-76
2021/12/09 05:51:37;;;;;;;59.57;27.87;;;;;;;1.31;100.00;99795.47;5079555;28;20199;-75
2021/12/09 05:54:04;;;;;;;54.60;29.17;;;;;;;1.34;100.00;99796.47;5079497;28;20198;-76
2021/12/09 05:56:31;;;;;;;53.73;27.77;;;;;;;1.33;100.00;99787.06;5079455;28;20344;-76
2021/12/09 05:59:00;;;;;;;67.53;32.93;;;;;;;1.41;100.00;99801.06;5078362;28;20711;-75
2021/12/09 06:01:27;;;;;;;64.23;31.57;;;;;;;1.42;100.00;99796.84;5079093;28;20230;-76
2021/12/09 06:03:54;;;;;;;53.67;28.40;;;;;;;1.42;100.00;99804.50;5078819;28;20202;-76
2021/12/09 06:06:21;;;;;;;56.50;27.97;;;;;;;1.46;100.00;99801.28;5078295;28;20198;-77
2021/12/09 06:08:49;;;;;;;53.87;26.50;;;;;;;1.23;100.00;99735.50;5078942;28;20198;-77
2021/12/09 06:11:15;;;;;;;63.40;27.00;;;;;;;1.55;100.00;99801.69;5075863;28;20307;-78
2021/12/09 06:13:44;;;;;;;58.90;28.43;;;;;;;1.48;100.00;99795.44;5075444;28;20198;-78
2021/12/09 06:16:13;;;;;;;63.60;27.67;;;;;;;1.57;100.00;99806.91;5075864;28;20289;-77
2021/12/09 06:18:40;;;;;;;72.67;29.53;;;;;;;1.61;100.00;99796.84;5074008;28;20195;-76
2021/12/09 06:21:07;;;;;;;64.67;29.17;;;;;;;1.79;100.00;99796.81;5056779;28;20663;-76
2021/12/09 06:23:33;;;;;;;156.27;51.97;;;;;;;1.80;100.00;99793.47;5057743;28;20199;-76
2021/12/09 06:26:00;;;;;;;177.97;40.90;;;;;;;1.84;100.00;99792.78;5062920;28;20186;-76
2021/12/09 06:28:27;;;;;;;177.03;47.77;;;;;;;1.77;100.00;99786.53;5075964;28;20230;-75
2021/12/09 06:30:54;;;;;;;217.70;46.33;;;;;;;1.75;100.00;99785.59;5081206;28;20214;-77
2021/12/09 06:33:22;;;;;;;166.77;34.93;;;;;;;1.63;100.00;99779.06;5074097;28;20199;-78
2021/12/09 06:35:49;;;;;;;140.07;33.97;;;;;;;1.47;100.00;99768.13;5070771;28;20195;-78
2021/12/09 06:38:17;;;;;;;116.27;34.27;;;;;;;1.35;100.00;99767.59;5074716;28;20202;-77
2021/12/09 06:40:44;;;;;;;187.00;45.53;;;;;;;1.14;100.00;99748.69;5078914;28;20217;-77
2021/12/09 06:43:11;;;;;;;157.27;43.40;;;;;;;1.34;100.00;99781.16;5078884;28;20199;-78
2021/12/09 06:45:39;;;;;;;215.43;44.53;;;;;;;1.53;100.00;99789.66;5078413;28;20190;-78
2021/12/09 06:48:06;;;;;;;138.90;34.87;;;;;;;1.54;100.00;99792.28;5079066;28;20244;-78
2021/12/09 06:50:34;;;;;;;174.70;37.83;;;;;;;1.52;100.00;99795.56;5078119;28;20256;-78
2021/12/09 06:53:01;;;;;;;171.53;39.63;;;;;;;1.63;100.00;99796.94;5076909;28;20273;-76
2021/12/09 06:55:28;;;;;;;401.40;43.30;;;;;;;1.58;100.00;99804.38;5074478;28;20194;-81
2021/12/09 06:57:55;;;;;;;414.30;32.77;;;;;;;1.82;100.00;99808.03;5061182;28;20203;-80
2021/12/09 07:00:24;;;;;;;174.50;35.53;;;;;;;2.04;100.00;99814.09;5055228;28;20199;-77
2021/12/09 07:02:53;;;;;;;314.63;39.63;;;;;;;2.07;100.00;99812.56;5054149;28;20227;-76
2021/12/09 07:05:22;;;;;;;166.27;41.53;;;;;;;2.33;100.00;99817.13;5054046;28;20191;-77
2021/12/09 07:07:51;;;;;;;163.97;42.60;;;;;;;2.50;100.00;99823.84;5053401;28;20632;-77
2021/12/09 07:10:19;;;;;;;113.83;38.87;;;;;;;2.64;100.00;99831.25;5056564;28;20202;-78
2021/12/09 07:12:47;;;;;;;211.20;46.93;;;;;;;2.75;100.00;99832.53;5072243;28;20205;-77
2021/12/09 07:15:15;;;;;;;176.33;44.93;;;;;;;2.89;100.00;99823.78;5074107;28;20692;-78
2021/12/09 07:17:42;;;;;;;152.40;43.53;;;;;;;2.95;100.00;99819.78;5077997;28;20206;-77
2021/12/09 07:20:12;;;;;;;143.87;42.53;;;;;;;3.00;100.00;99825.06;5078726;28;20223;-77
2021/12/09 07:22:39;;;;;;;125.33;41.17;;;;;;;2.86;100.00;99832.19;5081357;28;20225;-77
2021/12/09 07:25:09;;;;;;;182.20;38.03;;;;;;;2.59;100.00;99802.03;5078030;28;20198;-78
2021/12/09 07:27:36;;;;;;;84.33;34.73;;;;;;;2.72;100.00;99837.53;5074931;28;20202;-77
2021/12/09 07:30:04;;;;;;;99.10;36.50;;;;;;;2.50;100.00;99834.06;5072736;28;20728;-77
2021/12/09 07:32:31;;;;;;;110.30;39.70;;;;;;;2.38;100.00;99833.56;5070731;28;20632;-77
2021/12/09 07:34:58;;;;;;;82.37;31.57;;;;;;;2.35;100.00;99838.56;5053073;28;20294;-78
2021/12/09 07:37:25;;;;;;;103.87;35.33;;;;;;;2.38;100.00;99825.03;5053917;28;20199;-78
2021/12/09 07:39:52;;;;;;;91.73;34.10;;;;;;;2.44;100.00;99828.72;5061919;28;20188;-77
2021/12/09 07:42:20;;;;;;;81.37;30.83;;;;;;;2.30;100.00;99811.91;5058995;28;20226;-79
2021/12/09 07:44:47;;;;;;;74.93;30.80;;;;;;;2.22;100.00;99797.91;5051971;28;20700;-78
2021/12/09 07:47:14;;;;;;;104.33;36.27;;;;;;;2.33;100.00;99827.38;5054359;28;20198;-78
2021/12/09 07:49:41;;;;;;;106.90;37.23;;;;;;;2.53;100.00;99830.81;5053652;28;20188;-79
2021/12/09 07:52:08;;;;;;;102.43;42.37;;;;;;;2.56;100.00;99836.03;5051893;28;20196;-78
2021/12/09 07:54:35;;;;;;;97.30;35.20;;;;;;;2.65;100.00;99843.22;5058967;28;20194;-79
2021/12/09 07:57:02;;;;;;;69.47;29.33;;;;;;;2.73;100.00;99835.06;5071122;28;20252;-79
2021/12/09 07:59:30;;;;;;;65.97;27.53;;;;;;;2.76;100.00;99829.19;5071796;28;20277;-78
2021/12/09 08:01:57;;;;;;;67.20;28.80;;;;;;;2.66;100.00;99829.63;5072019;28;20231;-79
2021/12/09 08:04:24;;;;;;;65.53;28.97;;;;;;;2.57;100.00;99835.22;5073388;28;20244;-79
2021/12/09 08:06:51;;;;;;;53.93;23.37;;;;;;;2.48;100.00;99828.03;5075122;28;21552;-78
2021/12/09 08:09:18;;;;;;;64.87;25.10;;;;;;;2.45;100.00;99825.34;5072559;28;20281;-78
2021/12/09 08:11:45;;;;;;;47.47;19.60;;;;;;;2.40;100.00;99821.72;5071409;28;20210;-79
2021/12/09 08:14:15;;;;;;;54.23;25.33;;;;;;;2.45;100.00;99821.91;5071676;28;20199;-78
2021/12/09 08:16:44;;;;;;;44.00;19.97;;;;;;;2.53;100.00;99802.66;5073604;28;20211;-80
2021/12/09 08:19:13;;;;;;;134.60;51.20;;;;;;;2.55;100.00;99805.25;5072018;28;20591;-78
2021/12/09 08:21:40;;;;;;;82.03;35.07;;;;;;;2.67;100.00;99823.69;5072566;28;20210;-77
2021/12/09 08:24:10;;;;;;;95.33;34.13;;;;;;;2.87;100.00;99831.38;5075847;28;20194;-76
2021/12/09 08:26:38;;;;;;;94.03;33.77;;;;;;;2.42;100.00;99778.31;5076276;28;20585;-77
2021/12/09 08:29:06;;;;;;;85.27;31.17;;;;;;;3.03;100.00;99850.81;5072452;28;20227;-77
2021/12/09 08:31:34;;;;;;;70.90;29.23;;;;;;;3.06;100.00;99850.06;5075814;28;20201;-78
2021/12/09 08:34:03;;;;;;;73.57;30.70;;;;;;;2.85;100.00;99811.66;5075797;28;20199;-78
2021/12/09 08:36:30;;;;;;;68.30;26.20;;;;;;;3.31;100.00;99840.88;5075288;28;20683;-78
2021/12/09 08:38:57;;;;;;;51.50;24.30;;;;;;;3.56;100.00;99831.56;5075293;28;20264;-76
2021/12/09 08:41:25;;;;;;;47.07;23.37;;;;;;;3.76;100.00;99830.63;5074688;28;20191;-77
2021/12/09 08:43:52;;;;;;;39.30;20.10;;;;;;;3.79;100.00;99825.63;5074656;28;20665;-77
2021/12/09 08:46:19;;;;;;;38.83;18.93;;;;;;;3.72;100.00;99827.06;5075279;28;20195;-77
2021/12/09 08:48:46;;;;;;;31.13;17.07;;;;;;;3.75;100.00;99823.75;5074048;28;20226;-76
2021/12/09 08:51:15;;;;;;;35.40;17.40;;;;;;;3.98;100.00;99810.09;5075518;28;20224;-75
2021/12/09 08:53:43;;;;;;;32.60;18.57;;;;;;;3.82;100.00;99811.22;5075034;28;20194;-75
2021/12/09 08:56:10;;;;;;;26.13;14.80;;;;;;;3.70;100.00;99800.53;5075097;28;20195;-75
2021/12/09 08:58:40;;;;;;;25.50;14.00;;;;;;;3.60;100.00;99797.56;5074662;28;20205;-77
2021/12/09 09:01:11;;;;;;;26.97;11.57;;;;;;;3.03;100.00;99802.16;5075017;28;20275;-76
2021/12/09 09:03:38;;;;;;;24.57;12.93;;;;;;;3.15;100.00;99804.31;5074788;28;20724;-77
2021/12/09 09:06:05;;;;;;;29.10;15.57;;;;;;;3.19;100.00;99798.50;5074605;28;20885;-77
2021/12/09 09:08:34;;;;;;;19.70;12.73;;;;;;;3.06;100.00;99792.03;5074618;28;20194;-76
2021/12/09 09:11:01;;;;;;;24.00;11.97;;;;;;;3.19;100.00;99794.25;5074853;28;20281;-76
2021/12/09 09:13:28;;;;;;;29.43;16.00;;;;;;;3.29;100.00;99801.50;5073944;28;20692;-76
2021/12/09 09:15:54;;;;;;;33.60;18.57;;;;;;;3.55;100.00;99791.38;5074341;28;20191;-77
2021/12/09 09:18:22;;;;;;;25.60;14.63;;;;;;;3.54;100.00;99781.94;5074406;28;20214;-77
2021/12/09 09:20:49;;;;;;;25.23;13.87;;;;;;;3.47;100.00;99771.44;5074547;28;20215;-78
2021/12/09 09:23:18;;;;;;;32.00;14.53;;;;;;;3.48;100.00;99767.22;5074318;28;20230;-74
2021/12/09 09:25:46;;;;;;;29.73;16.87;;;;;;;3.43;100.00;99728.59;5074042;28;20252;-79
2021/12/09 09:28:14;;;;;;;31.00;16.30;;;;;;;3.70;100.00;99780.00;5074142;28;20238;-74
2021/12/09 09:30:47;;;;;;;31.37;16.03;;;;;;;3.84;100.00;99783.09;5074269;28;20252;-78
2021/12/09 09:33:15;;;;;;;31.40;15.97;;;;;;;3.99;100.00;99779.34;5074938;28;20297;-73
2021/12/09 09:35:44;;;;;;;25.97;14.27;;;;;;;3.92;100.00;99766.28;5074077;28;20198;-76
2021/12/09 09:38:12;;;;;;;26.20;14.53;;;;;;;4.04;100.00;99766.72;5074328;28;20191;-76
2021/12/09 09:40:45;;;;;;;26.77;15.80;;;;;;;3.95;100.00;99762.16;5075177;28;20207;-76
2021/12/09 09:43:27;;;;;;;33.03;16.53;;;;;;;3.83;100.00;99759.13;5073725;28;20249;-80
2021/12/09 09:45:54;;;;;;;28.93;14.57;;;;;;;3.92;100.00;99769.69;5072572;28;20191;-76
2021/12/09 09:48:21;;;;;;;28.57;15.40;;;;;;;3.92;100.00;99750.91;5069896;28;20206;-75
2021/12/09 09:50:49;;;;;;;20.43;11.50;;;;;;;3.92;100.00;99750.91;5074210;28;20664;-76
2021/12/09 09:53:17;;;;;;;29.87;15.93;;;;;;;3.96;100.00;99753.59;5061710;28;20234;-79
2021/12/09 09:55:46;;;;;;;26.43;14.63;;;;;;;3.98;100.00;99745.97;5054497;28;20199;-75
2021/12/09 09:58:16;;;;;;;44.43;19.60;;;;;;;3.96;100.00;99711.69;5053878;28;20670;-77
2021/12/09 10:00:43;;;;;;;33.13;17.40;;;;;;;4.30;100.00;99724.88;5054293;28;20207;-76
2021/12/09 10:03:16;;;;;;;37.10;19.20;;;;;;;4.34;100.00;99720.72;5053930;28;20223;-76
2021/12/09 10:05:45;;;;;;;25.53;14.37;;;;;;;4.29;100.00;99725.69;5068327;28;20612;-75
2021/12/09 10:08:13;;;;;;;35.57;16.33;;;;;;;4.42;100.00;99714.16;5073944;28;20194;-72
2021/12/09 10:10:41;;;;;;;36.10;19.33;;;;;;;4.52;100.00;99705.06;5073484;28;20590;-76
2021/12/09 10:13:11;;;;;;;35.67;16.43;;;;;;;4.50;100.00;99702.44;5073514;28;20248;-75
2021/12/09 10:15:43;;;;;;;29.83;16.70;;;;;;;4.59;100.00;99687.34;5071381;28;20190;-76
2021/12/09 10:18:11;;;;;;;21.70;11.03;;;;;;;4.58;100.00;99684.72;5073136;28;20198;-75
2021/12/09 10:20:48;;;;;;;28.43;12.73;;;;;;;4.64;100.00;99680.66;5070108;28;20218;-75
2021/12/09 10:23:45;;;;;;;41.13;22.23;;;;;;;5.04;100.00;99679.31;5073716;28;20288;-76
2021/12/09 10:26:21;;;;;;;49.33;20.87;;;;;;;5.06;100.00;99686.28;5038120;28;20248;-74
2021/12/09 10:28:52;;;;;;;35.13;14.80;;;;;;;5.11;100.00;99701.78;5072455;28;20230;-74
2021/12/09 10:31:25;;;;;;;21.73;14.07;;;;;;;5.14;100.00;99689.03;5073165;28;20203;-75
2021/12/09 10:34:18;;;;;;;18.90;10.67;;;;;;;5.24;100.00;99681.69;5072731;28;20206;-75
2021/12/09 10:36:57;;;;;;;29.40;15.50;;;;;;;5.39;100.00;99692.38;5069519;28;20199;-78
2021/12/09 10:39:31;;;;;;;30.77;15.80;;;;;;;5.52;100.00;99698.78;5073516;28;20600;-78
2021/12/09 10:42:00;;;;;;;41.53;20.53;;;;;;;5.65;100.00;99688.00;5072370;28;20221;-78
2021/12/09 10:44:38;;;;;;;25.13;13.43;;;;;;;5.68;100.00;99700.06;5072157;28;20195;-79
2021/12/09 10:47:12;;;;;;;30.23;14.63;;;;;;;5.73;100.00;99695.94;5072337;28;20210;-79
2021/12/09 10:49:52;;;;;;;31.27;16.07;;;;;;;5.92;100.00;99685.34;5073834;28;20206;-78
2021/12/09 10:52:36;;;;;;;29.93;13.67;;;;;;;5.88;100.00;99686.97;5072745;28;20206;-79
2021/12/09 10:55:12;;;;;;;25.17;14.10;;;;;;;5.66;100.00;99634.88;5073157;28;20202;-80
2021/12/09 10:57:40;;;;;;;26.07;14.40;;;;;;;6.13;100.00;99691.06;5073415;28;20665;-79
2021/12/09 11:00:21;;;;;;;30.13;15.70;;;;;;;6.36;100.00;99684.78;5072520;28;20202;-76
2021/12/09 11:03:01;;;;;;;26.23;15.57;;;;;;;6.26;100.00;99682.81;5073004;28;20713;-77
2021/12/09 11:05:29;;;;;;;31.73;13.97;;;;;;;6.00;100.00;99642.66;5072429;28;20210;-80
2021/12/09 11:08:12;;;;;;;22.53;9.77;;;;;;;5.72;100.00;99609.31;5074293;28;20194;-78
2021/12/09 11:10:45;;;;;;;31.30;16.03;;;;;;;6.06;100.00;99653.16;5072850;28;20191;-81
2021/12/09 11:13:13;;;;;;;33.40;17.30;;;;;;;6.52;100.00;99656.84;5072580;28;20246;-75
2021/12/09 11:15:49;;;;;;;36.07;18.07;;;;;;;6.44;100.00;99661.81;5072007;28;20207;-77
2021/12/09 11:18:36;;;;;;;30.83;15.23;;;;;;;6.59;100.00;99671.63;5073079;28;20201;-77
2021/12/09 11:21:06;;;;;;;33.27;16.07;;;;;;;6.56;100.00;99671.56;5073513;28;20766;-78
2021/12/09 11:23:40;;;;;;;33.53;17.10;;;;;;;6.69;100.00;99668.41;5069764;28;20226;-79
2021/12/09 11:26:25;;;;;;;33.00;18.77;;;;;;;6.71;100.00;99661.59;5070685;28;20213;-78